Time;durP1;ratioP1;P1;durP2;ratioP2;P2;SDS_P1;SDS_P2;PMS_P1;PMS_P2;Temp;Humidity;BMP_temperature;BMP_pressure;BME280_temperature;BME280_humidity;BME280_pressure;Samples;Min_cycle;Max_cycle;Signal;HPM_P1;HPM_P2
2022/03/05 00:01:10;;;;;;;30.10;18.98;;;;;;;;;;5028383;28;20046;-73
2022/03/05 00:04:03;;;;;;;31.77;18.20;;;;;;;;;;5029284;28;20445;-73
2022/03/05 00:06:35;;;;;;;34.65;19.08;;;;;;;;;;5028833;28;20077;-73
2022/03/05 00:09:10;;;;;;;34.00;18.65;;;;;;;;;;5012272;28;20137;-73
2022/03/05 00:11:39;;;;;;;33.85;19.27;;;;;;;;;;5014050;28;20121;-73
2022/03/05 00:14:12;;;;;;;33.72;19.50;;;;;;;;;;5011813;28;20046;-73
2022/03/05 00:16:42;;;;;;;31.00;18.63;;;;;;;;;;5014886;28;20046;-73
2022/03/05 00:19:35;;;;;;;31.60;19.52;;;;;;;;;;5017734;28;20042;-73
2022/03/05 00:22:06;;;;;;;31.13;18.63;;;;;;;;;;5017306;28;20394;-73
2022/03/05 00:24:36;;;;;;;37.25;18.85;;;;;;;;;;5016516;28;20145;-73
2022/03/05 00:27:07;;;;;;;33.92;18.02;;;;;;;;;;5017912;28;20507;-73
2022/03/05 00:29:40;;;;;;;33.28;19.35;;;;;;;;;;5017233;28;20046;-73
2022/03/05 00:32:07;;;;;;;30.25;17.63;;;;;;;;;;5016985;28;20485;-73
2022/03/05 00:34:41;;;;;;;30.90;18.25;;;;;;;;;;5017166;28;20400;-73
2022/03/05 00:37:10;;;;;;;32.75;18.45;;;;;;;;;;5017232;28;20052;-73
2022/03/05 00:39:40;;;;;;;33.15;19.00;;;;;;;;;;5016957;28;20128;-73
2022/03/05 00:42:09;;;;;;;31.13;20.33;;;;;;;;;;5017253;28;20080;-73
2022/03/05 00:44:39;;;;;;;34.47;20.20;;;;;;;;;;5016865;28;20061;-73
2022/03/05 00:47:11;;;;;;;34.97;20.95;;;;;;;;;;5016418;28;20045;-73
2022/03/05 00:49:44;;;;;;;36.53;21.42;;;;;;;;;;5017024;28;20045;-73
2022/03/05 00:52:15;;;;;;;38.58;21.83;;;;;;;;;;5016721;28;20054;-73
2022/03/05 00:54:42;;;;;;;37.38;22.30;;;;;;;;;;5016938;28;20462;-73
2022/03/05 00:57:35;;;;;;;39.55;23.40;;;;;;;;;;5017015;28;20050;-73
2022/03/05 01:00:10;;;;;;;41.95;23.02;;;;;;;;;;5016609;28;20042;-73
2022/03/05 01:02:39;;;;;;;41.65;23.33;;;;;;;;;;5031778;28;20096;-72
2022/03/05 01:05:32;;;;;;;42.97;23.17;;;;;;;;;;5031909;28;20089;-73
2022/03/05 01:08:02;;;;;;;44.72;24.38;;;;;;;;;;5015382;28;20038;-73
2022/03/05 01:10:31;;;;;;;44.75;25.15;;;;;;;;;;5015264;28;20412;-73
2022/03/05 01:13:03;;;;;;;43.20;24.65;;;;;;;;;;5015251;28;20115;-72
2022/03/05 01:15:33;;;;;;;47.53;26.95;;;;;;;;;;5015155;28;20057;-73
2022/03/05 01:18:26;;;;;;;41.92;24.50;;;;;;;;;;5015004;28;20072;-72
2022/03/05 01:20:53;;;;;;;45.80;24.95;;;;;;;;;;5014989;28;20088;-72
2022/03/05 01:23:46;;;;;;;42.20;24.88;;;;;;;;;;5031505;28;20042;-72
2022/03/05 01:26:14;;;;;;;45.15;24.52;;;;;;;;;;5014268;28;20045;-73
2022/03/05 01:29:07;;;;;;;46.67;26.25;;;;;;;;;;5031722;28;20044;-73
2022/03/05 01:31:36;;;;;;;46.17;25.73;;;;;;;;;;5014731;28;20049;-73
2022/03/05 01:34:06;;;;;;;45.25;25.75;;;;;;;;;;5015976;28;20061;-73
2022/03/05 01:36:35;;;;;;;45.17;25.58;;;;;;;;;;5014839;28;20041;-73
2022/03/05 01:39:04;;;;;;;44.22;25.23;;;;;;;;;;5014572;28;20050;-72
2022/03/05 01:41:33;;;;;;;42.80;25.05;;;;;;;;;;5014376;28;20042;-73
2022/03/05 01:44:01;;;;;;;41.63;25.30;;;;;;;;;;5015888;28;20113;-73
2022/03/05 01:46:34;;;;;;;44.15;26.35;;;;;;;;;;5015998;28;20065;-73
2022/03/05 01:49:08;;;;;;;43.00;24.58;;;;;;;;;;5014533;28;20054;-73
2022/03/05 01:51:37;;;;;;;46.63;25.27;;;;;;;;;;5015993;28;20497;-73
2022/03/05 01:54:09;;;;;;;45.30;25.67;;;;;;;;;;5030711;28;20287;-72
2022/03/05 01:56:42;;;;;;;48.10;25.83;;;;;;;;;;5030847;28;20089;-72
2022/03/05 01:59:11;;;;;;;42.70;23.90;;;;;;;;;;5014330;28;20060;-73
2022/03/05 02:01:42;;;;;;;45.05;24.88;;;;;;;;;;5015676;28;20045;-73
2022/03/05 02:04:14;;;;;;;46.25;25.38;;;;;;;;;;5030889;28;20077;-73
2022/03/05 02:06:42;;;;;;;45.67;25.85;;;;;;;;;;5015593;28;20092;-73
2022/03/05 02:09:12;;;;;;;46.20;26.05;;;;;;;;;;5014030;28;20042;-73
2022/03/05 02:12:05;;;;;;;46.17;25.58;;;;;;;;;;5030988;28;20042;-73
2022/03/05 02:14:33;;;;;;;43.90;24.15;;;;;;;;;;5015269;28;20415;-73
2022/03/05 02:17:04;;;;;;;45.05;24.88;;;;;;;;;;5015416;28;20493;-73
2022/03/05 02:19:39;;;;;;;44.58;24.63;;;;;;;;;;5015463;28;20048;-73
2022/03/05 02:22:10;;;;;;;;;;;;;;;;;;5015426;28;20073;-73
2022/03/05 02:24:43;;;;;;;47.72;25.63;;;;;;;;;;5013957;28;19921;-73
2022/03/05 02:27:11;;;;;;;45.33;24.38;;;;;;;;;;5015135;28;20058;-73
2022/03/05 02:29:41;;;;;;;47.35;25.92;;;;;;;;;;5015008;28;20050;-73
2022/03/05 02:32:20;;;;;;;43.08;24.80;;;;;;;;;;5013783;28;20505;-73
2022/03/05 02:34:52;;;;;;;49.90;25.67;;;;;;;;;;5014832;28;20038;-73
2022/03/05 02:37:46;;;;;;;44.00;24.63;;;;;;;;;;5014589;28;20077;-73
2022/03/05 02:40:13;;;;;;;46.38;25.02;;;;;;;;;;5014790;28;20041;-73
2022/03/05 02:42:41;;;;;;;42.60;23.55;;;;;;;;;;5014414;28;20041;-73
2022/03/05 02:45:18;;;;;;;40.90;23.35;;;;;;;;;;5014764;28;20057;-73
2022/03/05 02:47:45;;;;;;;43.45;23.58;;;;;;;;;;5014547;28;20072;-73
2022/03/05 02:50:22;;;;;;;39.95;21.92;;;;;;;;;;5014757;28;20501;-73
2022/03/05 02:53:15;;;;;;;43.83;23.23;;;;;;;;;;5014462;28;20053;-73
2022/03/05 02:55:46;;;;;;;39.30;21.63;;;;;;;;;;5014510;28;20116;-73
2022/03/05 02:58:15;;;;;;;42.55;23.25;;;;;;;;;;5014605;28;20046;-73
2022/03/05 03:00:45;;;;;;;44.65;23.60;;;;;;;;;;5013305;28;20058;-73
2022/03/05 03:03:38;;;;;;;42.67;23.13;;;;;;;;;;5014406;28;20052;-73
2022/03/05 03:06:08;;;;;;;41.42;22.92;;;;;;;;;;5014371;28;20100;-73
2022/03/05 03:08:40;;;;;;;43.50;23.48;;;;;;;;;;5014364;28;20061;-73
2022/03/05 03:11:09;;;;;;;40.83;22.23;;;;;;;;;;5029988;28;20104;-73
2022/03/05 03:13:38;;;;;;;41.08;23.42;;;;;;;;;;5014205;28;20050;-73
2022/03/05 03:16:08;;;;;;;43.20;22.45;;;;;;;;;;5012814;28;20085;-73
2022/03/05 03:18:40;;;;;;;39.35;22.02;;;;;;;;;;5014590;28;20042;-73
2022/03/05 03:21:08;;;;;;;36.60;21.42;;;;;;;;;;5014107;28;20080;-73
2022/03/05 03:24:01;;;;;;;36.20;22.00;;;;;;;;;;4996522;28;20052;-73
2022/03/05 03:26:28;;;;;;;40.13;22.40;;;;;;;;;;5029334;28;20145;-73
2022/03/05 03:29:02;;;;;;;37.97;22.23;;;;;;;;;;5012753;28;20088;-73
2022/03/05 03:31:33;;;;;;;42.92;23.40;;;;;;;;;;5012576;28;20112;-73
2022/03/05 03:34:06;;;;;;;41.70;23.20;;;;;;;;;;5013981;28;20463;-74
2022/03/05 03:36:35;;;;;;;39.50;21.67;;;;;;;;;;5013865;28;20057;-74
2022/03/05 03:39:11;;;;;;;41.03;22.65;;;;;;;;;;5028823;28;20096;-73
2022/03/05 03:42:04;;;;;;;39.97;22.05;;;;;;;;;;5013569;28;20041;-74
2022/03/05 03:44:34;;;;;;;37.20;21.20;;;;;;;;;;5013990;28;20044;-74
2022/03/05 03:47:03;;;;;;;38.75;22.05;;;;;;;;;;5013990;28;20551;-74
2022/03/05 03:49:36;;;;;;;39.33;22.83;;;;;;;;;;5013382;28;20042;-74
2022/03/05 03:52:06;;;;;;;42.33;22.48;;;;;;;;;;5011820;28;20386;-74
2022/03/05 03:54:34;;;;;;;42.22;22.60;;;;;;;;;;5012165;28;20107;-74
2022/03/05 03:57:28;;;;;;;39.08;21.73;;;;;;;;;;5012329;28;20042;-74
2022/03/05 03:59:58;;;;;;;39.65;21.58;;;;;;;;;;5013596;28;20441;-74
2022/03/05 04:02:51;;;;;;;41.38;21.80;;;;;;;;;;4996250;28;20489;-73
2022/03/05 04:05:21;;;;;;;40.22;21.73;;;;;;;;;;5012385;28;20054;-73
2022/03/05 04:10:58;;;;;;;38.25;21.30;;;;;;;;;;4972594;28;20490;-74
2022/03/05 04:13:38;;;;;;;38.38;20.95;;;;;;;;;;5006919;28;20057;-73
2022/03/05 04:16:33;;;;;;;38.90;21.48;;;;;;;;;;5013014;28;20038;-73
2022/03/05 04:19:26;;;;;;;39.90;21.15;;;;;;;;;;5011970;28;20052;-73
2022/03/05 04:21:59;;;;;;;37.47;20.23;;;;;;;;;;5013365;28;20561;-73
2022/03/05 04:24:31;;;;;;;36.83;20.42;;;;;;;;;;5011914;28;20132;-74
2022/03/05 04:26:58;;;;;;;34.90;20.30;;;;;;;;;;5013532;28;20448;-73
2022/03/05 04:29:31;;;;;;;37.40;20.20;;;;;;;;;;5028255;28;20497;-73
2022/03/05 04:31:59;;;;;;;37.78;20.63;;;;;;;;;;5011891;28;20081;-73
2022/03/05 04:34:27;;;;;;;34.45;20.08;;;;;;;;;;5011579;28;20034;-73
2022/03/05 04:36:57;;;;;;;38.00;20.10;;;;;;;;;;5011919;28;20450;-73
2022/03/05 04:39:26;;;;;;;36.05;21.27;;;;;;;;;;5011845;28;20045;-73
2022/03/05 04:41:58;;;;;;;36.88;20.40;;;;;;;;;;5013452;28;20042;-73
2022/03/05 04:44:30;;;;;;;35.22;18.85;;;;;;;;;;5013203;28;20092;-73
2022/03/05 04:46:57;;;;;;;42.63;22.30;;;;;;;;;;5013224;28;20041;-74
2022/03/05 04:49:32;;;;;;;57.45;27.05;;;;;;;;;;5012903;28;20046;-73
2022/03/05 04:51:59;;;;;;;54.70;25.17;;;;;;;;;;5011737;28;20500;-73
2022/03/05 04:54:33;;;;;;;48.70;23.80;;;;;;;;;;5028465;28;20042;-73
2022/03/05 04:57:04;;;;;;;46.08;22.38;;;;;;;;;;5011498;28;20054;-73
2022/03/05 04:59:35;;;;;;;39.72;19.08;;;;;;;;;;5028132;28;20097;-74
2022/03/05 05:02:04;;;;;;;35.65;19.00;;;;;;;;;;5029713;28;20088;-73
2022/03/05 05:04:41;;;;;;;34.85;19.77;;;;;;;;;;5016638;28;20069;-73
2022/03/05 05:07:15;;;;;;;37.72;19.27;;;;;;;;;;4999265;28;20474;-73
2022/03/05 05:09:43;;;;;;;36.03;19.67;;;;;;;;;;5016693;28;20038;-78
2022/03/05 05:12:16;;;;;;;31.33;17.80;;;;;;;;;;5032144;28;20400;-73
2022/03/05 05:14:48;;;;;;;35.97;20.67;;;;;;;;;;5016546;28;20056;-74
2022/03/05 05:17:15;;;;;;;33.20;18.45;;;;;;;;;;5014919;28;20136;-74
2022/03/05 05:19:48;;;;;;;36.30;19.98;;;;;;;;;;5031396;28;20116;-75
2022/03/05 05:22:16;;;;;;;39.33;20.15;;;;;;;;;;5016352;28;20045;-76
2022/03/05 05:24:46;;;;;;;33.83;18.58;;;;;;;;;;5031449;28;20050;-75
2022/03/05 05:27:14;;;;;;;38.97;20.85;;;;;;;;;;5010818;28;20073;-75
2022/03/05 05:29:42;;;;;;;41.35;20.60;;;;;;;;;;4999894;28;20038;-75
2022/03/05 05:32:10;;;;;;;43.67;21.88;;;;;;;;;;5014587;28;20512;-75
2022/03/05 05:34:39;;;;;;;41.55;20.40;;;;;;;;;;5014632;28;20052;-75
2022/03/05 05:37:13;;;;;;;36.08;19.50;;;;;;;;;;5015816;28;20073;-75
2022/03/05 05:39:41;;;;;;;35.13;18.60;;;;;;;;;;5014431;28;20129;-75
2022/03/05 05:42:09;;;;;;;33.67;19.92;;;;;;;;;;5015416;28;20056;-75
2022/03/05 05:44:38;;;;;;;31.00;18.33;;;;;;;;;;5016262;28;20049;-75
2022/03/05 05:47:17;;;;;;;29.08;17.63;;;;;;;;;;5015810;28;20054;-74
2022/03/05 05:49:58;;;;;;;31.92;18.67;;;;;;;;;;5015959;28;20042;-75
2022/03/05 05:52:25;;;;;;;29.55;17.75;;;;;;;;;;5014095;28;20045;-75
2022/03/05 05:55:11;;;;;;;31.55;18.55;;;;;;;;;;5014586;28;20065;-74
2022/03/05 06:00:36;;;;;;;32.70;19.58;;;;;;;;;;5015516;28;20046;-75
2022/03/05 06:03:34;;;;;;;39.47;21.45;;;;;;;;;;5014249;28;20044;-75
2022/03/05 06:06:33;;;;;;;35.95;19.67;;;;;;;;;;5014491;28;20108;-75
2022/03/05 06:09:01;;;;;;;31.00;19.25;;;;;;;;;;5031171;28;20053;-76
2022/03/05 06:11:40;;;;;;;35.10;21.65;;;;;;;;;;5030954;28;20096;-76
2022/03/05 06:14:07;;;;;;;33.70;20.67;;;;;;;;;;5014056;28;20069;-80
2022/03/05 06:16:37;;;;;;;31.65;19.08;;;;;;;;;;5015981;28;20052;-81
2022/03/05 06:22:36;;;;;;;28.13;19.02;;;;;;;;;;5002120;28;20046;-78
2022/03/05 06:25:07;;;;;;;28.33;18.85;;;;;;;;;;4995060;28;20133;-75
2022/03/05 06:27:36;;;;;;;31.20;19.95;;;;;;;;;;5015071;28;20382;-74
2022/03/05 06:30:36;;;;;;;24.00;16.88;;;;;;;;;;5013812;28;20444;-78
2022/03/05 06:33:05;;;;;;;23.80;17.23;;;;;;;;;;5014532;28;20052;-82
2022/03/05 06:35:37;;;;;;;28.42;20.08;;;;;;;;;;5015472;28;20440;-84
2022/03/05 06:38:06;;;;;;;28.27;19.25;;;;;;;;;;5015671;28;20059;-82
2022/03/05 06:40:39;;;;;;;27.40;18.08;;;;;;;;;;5015462;28;20497;-81
2022/03/05 06:43:07;;;;;;;28.00;19.30;;;;;;;;;;5027287;28;20191;-82
2022/03/05 06:45:37;;;;;;;25.95;17.95;;;;;;;;;;4996435;28;20046;-83
2022/03/05 06:48:05;;;;;;;30.73;19.25;;;;;;;;;;5010626;28;20088;-87
2022/03/05 06:50:36;;;;;;;30.33;19.40;;;;;;;;;;5013622;28;20042;-88
2022/03/05 06:53:04;;;;;;;29.42;19.30;;;;;;;;;;5013823;28;20042;-86
2022/03/05 06:55:34;;;;;;;28.55;19.33;;;;;;;;;;5013732;28;20045;-83
2022/03/05 06:58:03;;;;;;;26.27;18.30;;;;;;;;;;5013774;28;20489;-85
2022/03/05 07:00:35;;;;;;;30.83;20.98;;;;;;;;;;5013805;28;20045;-86
2022/03/05 07:03:05;;;;;;;28.35;19.25;;;;;;;;;;5013583;28;20385;-86
2022/03/05 07:05:37;;;;;;;28.67;19.08;;;;;;;;;;5013412;28;20041;-80
2022/03/05 07:08:07;;;;;;;26.08;18.67;;;;;;;;;;5029137;28;20061;-86
2022/03/05 07:10:37;;;;;;;27.77;19.77;;;;;;;;;;5005962;28;20042;-84
2022/03/05 07:13:06;;;;;;;25.15;18.55;;;;;;;;;;5011064;28;20065;-87
2022/03/05 07:15:34;;;;;;;23.95;17.92;;;;;;;;;;5010486;28;20054;-87
2022/03/05 07:18:07;;;;;;;26.60;19.65;;;;;;;;;;5009930;28;20409;-83
2022/03/05 07:20:34;;;;;;;25.67;19.17;;;;;;;;;;5009769;28;20054;-85
2022/03/05 07:23:04;;;;;;;26.27;18.17;;;;;;;;;;5004691;28;20113;-84
2022/03/05 07:25:39;;;;;;;27.40;19.48;;;;;;;;;;5008961;28;20046;-83
2022/03/05 07:28:08;;;;;;;26.05;18.98;;;;;;;;;;4993678;28;20438;-84
2022/03/05 07:30:39;;;;;;;26.02;17.13;;;;;;;;;;5009256;28;20050;-86
2022/03/05 07:33:16;;;;;;;25.00;16.92;;;;;;;;;;4993777;28;20042;-84
2022/03/05 07:35:43;;;;;;;23.20;15.30;;;;;;;;;;4992800;28;20080;-84
2022/03/05 07:38:11;;;;;;;28.08;19.67;;;;;;;;;;4992550;28;20146;-83
2022/03/05 07:40:38;;;;;;;25.92;18.45;;;;;;;;;;4976357;28;20078;-84
2022/03/05 07:43:06;;;;;;;27.10;17.67;;;;;;;;;;4993458;28;20044;-84
2022/03/05 07:45:34;;;;;;;29.77;18.02;;;;;;;;;;5008718;28;20137;-84
2022/03/05 07:48:01;;;;;;;29.40;19.33;;;;;;;;;;4993279;28;20042;-84
2022/03/05 07:50:29;;;;;;;30.95;19.48;;;;;;;;;;5008723;28;20054;-82
2022/03/05 07:52:56;;;;;;;29.20;19.25;;;;;;;;;;4993330;28;20050;-83
2022/03/05 07:55:24;;;;;;;27.52;18.55;;;;;;;;;;4992285;28;20488;-84
2022/03/05 07:57:52;;;;;;;28.63;18.50;;;;;;;;;;4984039;28;20038;-85
2022/03/05 08:00:23;;;;;;;35.50;20.58;;;;;;;;;;4993270;28;20472;-86
2022/03/05 08:02:53;;;;;;;27.45;17.02;;;;;;;;;;4993582;28;20069;-73
2022/03/05 08:05:23;;;;;;;24.95;16.20;;;;;;;;;;4992772;28;20051;-74
2022/03/05 08:07:55;;;;;;;27.55;16.73;;;;;;;;;;4993655;28;20042;-74
2022/03/05 08:10:26;;;;;;;27.88;18.25;;;;;;;;;;4992458;28;20146;-73
2022/03/05 08:12:55;;;;;;;27.88;16.48;;;;;;;;;;4993703;28;20555;-76
2022/03/05 08:15:22;;;;;;;26.92;17.65;;;;;;;;;;4992526;28;20049;-74
2022/03/05 08:17:58;;;;;;;28.40;17.98;;;;;;;;;;4993807;28;20042;-74
2022/03/05 08:20:27;;;;;;;28.55;18.92;;;;;;;;;;4991987;28;20142;-72
2022/03/05 08:22:57;;;;;;;28.50;18.35;;;;;;;;;;4992796;28;20043;-72
2022/03/05 08:25:25;;;;;;;28.63;18.85;;;;;;;;;;4992024;28;20047;-74
2022/03/05 08:27:53;;;;;;;26.73;17.05;;;;;;;;;;4993371;28;20044;-73
2022/03/05 08:30:23;;;;;;;30.08;18.15;;;;;;;;;;5009916;28;20485;-74
2022/03/05 08:32:51;;;;;;;30.92;18.73;;;;;;;;;;5006908;28;20503;-72
2022/03/05 08:35:20;;;;;;;28.67;17.92;;;;;;;;;;5008394;28;20450;-74
2022/03/05 08:37:48;;;;;;;25.08;16.63;;;;;;;;;;5014086;28;20045;-73
2022/03/05 08:40:15;;;;;;;26.98;18.38;;;;;;;;;;5032155;28;20049;-73
2022/03/05 08:42:44;;;;;;;29.85;19.08;;;;;;;;;;5032213;28;20042;-74
2022/03/05 08:45:12;;;;;;;26.45;17.65;;;;;;;;;;5019005;28;20029;-72
2022/03/05 08:47:39;;;;;;;28.02;17.55;;;;;;;;;;5015112;28;20034;-73
2022/03/05 08:50:07;;;;;;;27.50;18.42;;;;;;;;;;4996899;28;20038;-73
2022/03/05 08:52:38;;;;;;;29.48;20.10;;;;;;;;;;5014972;28;20050;-73
2022/03/05 08:55:10;;;;;;;29.63;18.67;;;;;;;;;;5016684;28;20061;-73
2022/03/05 08:57:39;;;;;;;31.33;19.77;;;;;;;;;;5016699;28;20121;-73
2022/03/05 09:00:08;;;;;;;28.60;19.38;;;;;;;;;;5016324;28;20061;-75
2022/03/05 09:02:36;;;;;;;30.05;19.00;;;;;;;;;;5016520;28;20554;-75
2022/03/05 09:05:04;;;;;;;28.08;18.55;;;;;;;;;;5031753;28;20034;-73
2022/03/05 09:07:31;;;;;;;24.60;16.17;;;;;;;;;;5016347;28;20074;-74
2022/03/05 09:09:59;;;;;;;32.17;19.77;;;;;;;;;;5015217;28;20142;-73
2022/03/05 09:12:26;;;;;;;26.27;18.45;;;;;;;;;;5016625;28;20124;-73
2022/03/05 09:14:54;;;;;;;30.05;18.77;;;;;;;;;;5011773;28;20065;-74
2022/03/05 09:17:22;;;;;;;29.17;18.85;;;;;;;;;;5015075;28;20460;-73
2022/03/05 09:19:49;;;;;;;27.60;18.60;;;;;;;;;;5015009;28;20386;-72
2022/03/05 09:22:17;;;;;;;28.20;18.40;;;;;;;;;;5015014;28;20053;-71
2022/03/05 09:24:45;;;;;;;30.17;19.65;;;;;;;;;;5016448;28;20038;-71
2022/03/05 09:27:12;;;;;;;27.80;18.17;;;;;;;;;;5014985;28;20034;-71
2022/03/05 09:29:40;;;;;;;27.65;18.70;;;;;;;;;;5031351;28;20125;-72
2022/03/05 09:32:09;;;;;;;22.85;15.43;;;;;;;;;;4998589;28;20045;-71
2022/03/05 09:34:37;;;;;;;26.77;17.88;;;;;;;;;;5014174;28;20046;-71
2022/03/05 09:37:04;;;;;;;29.77;18.25;;;;;;;;;;5015309;28;20060;-72
2022/03/05 09:39:32;;;;;;;29.70;19.13;;;;;;;;;;5016024;28;20052;-71
2022/03/05 09:42:00;;;;;;;30.23;19.70;;;;;;;;;;5030251;28;20428;-71
2022/03/05 09:44:28;;;;;;;30.00;19.33;;;;;;;;;;5007109;28;20078;-73
2022/03/05 09:46:57;;;;;;;33.22;19.98;;;;;;;;;;4994839;28;20505;-70
2022/03/05 09:49:26;;;;;;;30.20;19.90;;;;;;;;;;5009896;28;20371;-66
2022/03/05 09:51:53;;;;;;;30.08;20.48;;;;;;;;;;4996076;28;20042;-65
2022/03/05 09:54:21;;;;;;;35.30;22.52;;;;;;;;;;4978543;28;20134;-66
2022/03/05 09:56:49;;;;;;;36.50;22.45;;;;;;;;;;5011267;28;20057;-66
2022/03/05 09:59:17;;;;;;;33.55;22.92;;;;;;;;;;4996234;28;20038;-66
2022/03/05 10:01:45;;;;;;;31.35;22.77;;;;;;;;;;4995894;28;20046;-66
2022/03/05 10:04:24;;;;;;;33.65;22.75;;;;;;;;;;5004141;28;20081;-64
2022/03/05 10:07:10;;;;;;;31.02;22.80;;;;;;;;;;5009159;28;20078;-65
2022/03/05 10:09:38;;;;;;;32.10;21.58;;;;;;;;;;5030483;28;20049;-66
2022/03/05 10:12:25;;;;;;;33.30;23.10;;;;;;;;;;5030409;28;20104;-65
2022/03/05 10:15:08;;;;;;;36.28;23.63;;;;;;;;;;5030444;28;20049;-66
2022/03/05 10:17:55;;;;;;;32.33;22.55;;;;;;;;;;5030225;28;20069;-67
2022/03/05 10:20:27;;;;;;;35.03;22.85;;;;;;;;;;5015045;28;20521;-65
2022/03/05 10:23:04;;;;;;;33.03;22.50;;;;;;;;;;5015547;28;20436;-65
2022/03/05 10:25:36;;;;;;;32.05;22.80;;;;;;;;;;5014437;28;20416;-64
2022/03/05 10:28:08;;;;;;;35.88;23.60;;;;;;;;;;5013251;28;20042;-67
2022/03/05 10:30:41;;;;;;;32.10;21.98;;;;;;;;;;5011245;28;20049;-66
2022/03/05 10:33:14;;;;;;;31.98;22.73;;;;;;;;;;5013823;28;20050;-67
2022/03/05 10:35:47;;;;;;;31.42;22.58;;;;;;;;;;5014581;28;20069;-67
2022/03/05 10:38:14;;;;;;;32.78;23.35;;;;;;;;;;5030103;28;20523;-67
2022/03/05 10:40:42;;;;;;;30.55;21.88;;;;;;;;;;5014826;28;20453;-66
2022/03/05 10:43:09;;;;;;;52.45;34.08;;;;;;;;;;5029818;28;20489;-66
2022/03/05 10:45:58;;;;;;;34.95;24.13;;;;;;;;;;5014925;28;20061;-66
2022/03/05 10:48:26;;;;;;;41.25;26.33;;;;;;;;;;5014448;28;20050;-66
2022/03/05 10:50:57;;;;;;;31.60;22.65;;;;;;;;;;5013454;28;20100;-65
2022/03/05 10:53:39;;;;;;;35.50;23.13;;;;;;;;;;5007660;28;20073;-67
2022/03/05 10:56:25;;;;;;;31.67;22.95;;;;;;;;;;5009442;28;20216;-66
2022/03/05 10:59:05;;;;;;;40.00;22.98;;;;;;;;;;5012490;28;20126;-66
2022/03/05 11:01:33;;;;;;;36.72;23.83;;;;;;;;;;5012184;28;20057;-65
2022/03/05 11:04:01;;;;;;;41.50;28.85;;;;;;;;;;5013449;28;20026;-66
2022/03/05 11:06:28;;;;;;;56.20;30.63;;;;;;;;;;5013676;28;20073;-66
2022/03/05 11:09:00;;;;;;;45.95;24.23;;;;;;;;;;5012803;28;20041;-65
2022/03/05 11:11:35;;;;;;;37.90;26.13;;;;;;;;;;5012116;28;20132;-67
2022/03/05 11:14:03;;;;;;;35.28;22.42;;;;;;;;;;5012395;28;20133;-65
2022/03/05 11:16:33;;;;;;;34.45;23.52;;;;;;;;;;5011249;28;20034;-66
2022/03/05 11:19:06;;;;;;;32.53;22.40;;;;;;;;;;5028789;28;20100;-66
2022/03/05 11:21:36;;;;;;;33.13;23.63;;;;;;;;;;5013488;28;20523;-66
2022/03/05 11:24:05;;;;;;;34.88;24.33;;;;;;;;;;5009311;28;20052;-67
2022/03/05 11:26:37;;;;;;;31.45;22.30;;;;;;;;;;5011043;28;20042;-67
2022/03/05 11:29:27;;;;;;;33.80;23.90;;;;;;;;;;5012180;28;20041;-66
2022/03/05 11:31:57;;;;;;;34.78;24.42;;;;;;;;;;5011362;28;20069;-66
2022/03/05 11:34:42;;;;;;;34.35;22.77;;;;;;;;;;5012007;28;20505;-65
2022/03/05 11:37:18;;;;;;;32.67;23.92;;;;;;;;;;5014147;28;20038;-66
2022/03/05 11:39:48;;;;;;;31.60;21.50;;;;;;;;;;5029398;28;20142;-65
2022/03/05 11:42:34;;;;;;;31.17;21.48;;;;;;;;;;5014407;28;20397;-65
2022/03/05 11:45:22;;;;;;;35.05;24.23;;;;;;;;;;5013728;28;20046;-66
2022/03/05 11:47:55;;;;;;;29.45;21.60;;;;;;;;;;5012308;28;20046;-67
2022/03/05 11:50:28;;;;;;;32.13;22.75;;;;;;;;;;5029039;28;20176;-67
2022/03/05 11:53:04;;;;;;;37.38;25.90;;;;;;;;;;5028738;28;20049;-67
2022/03/05 11:55:41;;;;;;;32.55;22.83;;;;;;;;;;5013603;28;20197;-66
2022/03/05 11:58:15;;;;;;;30.63;22.13;;;;;;;;;;5013727;28;20046;-66
2022/03/05 12:00:46;;;;;;;34.78;23.25;;;;;;;;;;5012367;28;20137;-66
2022/03/05 12:03:36;;;;;;;34.15;23.65;;;;;;;;;;5014135;28;20054;-66
2022/03/05 12:06:08;;;;;;;31.23;22.40;;;;;;;;;;5012192;28;20413;-66
2022/03/05 12:08:40;;;;;;;29.27;21.30;;;;;;;;;;5013471;28;20046;-66
2022/03/05 12:11:10;;;;;;;29.58;19.98;;;;;;;;;;5011463;28;20452;-66
2022/03/05 12:13:41;;;;;;;33.40;22.38;;;;;;;;;;4996216;28;20144;-66
2022/03/05 12:16:17;;;;;;;31.88;22.33;;;;;;;;;;5013425;28;20438;-66
2022/03/05 12:18:51;;;;;;;29.17;20.48;;;;;;;;;;5028707;28;20058;-66
2022/03/05 12:21:28;;;;;;;33.70;24.05;;;;;;;;;;5013284;28;20053;-66
2022/03/05 12:23:59;;;;;;;32.13;20.63;;;;;;;;;;5013732;28;20046;-66
2022/03/05 12:26:36;;;;;;;28.75;20.25;;;;;;;;;;5013226;28;20042;-65
2022/03/05 12:29:04;;;;;;;33.97;23.52;;;;;;;;;;5013285;28;20103;-66
2022/03/05 12:31:33;;;;;;;33.15;20.92;;;;;;;;;;5011925;28;20504;-66
2022/03/05 12:34:08;;;;;;;27.33;20.38;;;;;;;;;;5012070;28;20064;-65
2022/03/05 12:37:01;;;;;;;27.23;18.73;;;;;;;;;;5013278;28;20508;-65
2022/03/05 12:39:29;;;;;;;27.52;18.92;;;;;;;;;;5012744;28;20088;-66
2022/03/05 12:41:56;;;;;;;27.27;19.67;;;;;;;;;;4993111;28;20053;-65
2022/03/05 12:44:34;;;;;;;29.25;19.65;;;;;;;;;;5003430;28;20045;-71
2022/03/05 12:47:03;;;;;;;25.65;18.92;;;;;;;;;;5000213;28;20077;-71
2022/03/05 12:49:33;;;;;;;28.85;19.92;;;;;;;;;;4993116;28;20116;-71
2022/03/05 12:52:16;;;;;;;26.15;17.77;;;;;;;;;;4993343;28;20386;-71
2022/03/05 12:54:45;;;;;;;27.05;20.13;;;;;;;;;;4992126;28;20093;-72
2022/03/05 12:57:23;;;;;;;24.48;17.10;;;;;;;;;;4993446;28;20046;-72
2022/03/05 12:59:52;;;;;;;29.88;20.02;;;;;;;;;;4992229;28;20125;-70
2022/03/05 13:02:22;;;;;;;28.20;20.27;;;;;;;;;;5008665;28;20049;-72
2022/03/05 13:04:57;;;;;;;27.95;20.05;;;;;;;;;;4976406;28;20501;-72
2022/03/05 13:07:37;;;;;;;29.10;20.80;;;;;;;;;;4992404;28;20077;-72
2022/03/05 13:10:09;;;;;;;27.60;19.80;;;;;;;;;;4993264;28;20042;-72
2022/03/05 13:12:41;;;;;;;32.28;20.52;;;;;;;;;;4992815;28;20041;-70
2022/03/05 13:15:24;;;;;;;28.35;20.63;;;;;;;;;;4991984;28;20084;-73
2022/03/05 13:21:47;;;;;;;27.85;19.65;;;;;;;;;;4992707;28;20057;-69
2022/03/05 13:24:19;;;;;;;29.55;20.38;;;;;;;;;;4999882;28;20053;-66
2022/03/05 13:26:52;;;;;;;28.80;20.95;;;;;;;;;;4994957;28;20485;-66
2022/03/05 13:29:20;;;;;;;27.92;20.95;;;;;;;;;;5030216;28;20050;-67
2022/03/05 13:31:48;;;;;;;28.83;19.92;;;;;;;;;;5008954;28;20058;-67
2022/03/05 13:34:23;;;;;;;30.40;21.10;;;;;;;;;;5013102;28;20064;-67
2022/03/05 13:36:52;;;;;;;29.02;20.50;;;;;;;;;;5013789;28;20042;-67
2022/03/05 13:39:24;;;;;;;31.73;23.17;;;;;;;;;;5027175;28;20424;-68
2022/03/05 13:41:54;;;;;;;30.20;22.25;;;;;;;;;;5015348;28;20100;-67
2022/03/05 13:44:22;;;;;;;31.15;20.88;;;;;;;;;;5026914;28;20496;-66
2022/03/05 13:46:52;;;;;;;33.63;21.75;;;;;;;;;;5015893;28;20049;-66
2022/03/05 13:49:24;;;;;;;25.20;18.10;;;;;;;;;;5030556;28;20049;-68
2022/03/05 13:51:54;;;;;;;32.90;21.20;;;;;;;;;;5001816;28;20078;-68
2022/03/05 13:54:35;;;;;;;30.20;21.67;;;;;;;;;;4995861;28;20496;-68
2022/03/05 13:57:03;;;;;;;27.92;19.30;;;;;;;;;;5010907;28;20046;-66
2022/03/05 13:59:38;;;;;;;31.00;22.50;;;;;;;;;;4996225;28;20061;-68
2022/03/05 14:02:06;;;;;;;31.52;22.33;;;;;;;;;;4996090;28;20493;-67
2022/03/05 14:04:54;;;;;;;31.75;21.20;;;;;;;;;;5011054;28;20042;-67
2022/03/05 14:07:25;;;;;;;29.30;20.77;;;;;;;;;;4996294;28;20100;-66
2022/03/05 14:09:52;;;;;;;36.03;24.50;;;;;;;;;;4995741;28;20042;-67
2022/03/05 14:12:24;;;;;;;43.58;28.42;;;;;;;;;;4994462;28;20038;-66
2022/03/05 14:14:56;;;;;;;36.63;24.98;;;;;;;;;;4996100;28;20085;-67
2022/03/05 14:17:34;;;;;;;39.53;26.00;;;;;;;;;;5010776;28;20046;-67
2022/03/05 14:20:09;;;;;;;31.70;23.10;;;;;;;;;;5010609;28;20046;-67
2022/03/05 14:22:37;;;;;;;;;;;;;;;;;;5010834;28;20145;-67
2022/03/05 14:25:10;;;;;;;32.38;20.58;;;;;;;;;;4994419;28;19921;-65
2022/03/05 14:27:38;;;;;;;36.40;24.98;;;;;;;;;;4995283;28;20508;-66
2022/03/05 14:30:06;;;;;;;43.80;25.50;;;;;;;;;;5010518;28;20039;-67
2022/03/05 14:32:35;;;;;;;39.50;26.75;;;;;;;;;;5010408;28;20043;-66
2022/03/05 14:35:04;;;;;;;34.60;23.63;;;;;;;;;;5002559;28;20034;-66
2022/03/05 14:37:31;;;;;;;32.05;22.08;;;;;;;;;;5014605;28;20045;-67
2022/03/05 14:40:00;;;;;;;33.83;22.60;;;;;;;;;;5013045;28;20439;-67
2022/03/05 14:42:28;;;;;;;42.67;26.40;;;;;;;;;;5026030;28;20038;-67
2022/03/05 14:44:56;;;;;;;36.17;23.45;;;;;;;;;;5009882;28;20038;-68
2022/03/05 14:47:25;;;;;;;36.25;24.20;;;;;;;;;;5013223;28;20050;-68
2022/03/05 14:49:52;;;;;;;37.47;23.70;;;;;;;;;;5010075;28;20034;-67
2022/03/05 14:52:22;;;;;;;38.67;24.27;;;;;;;;;;5012807;28;20061;-68
2022/03/05 14:54:51;;;;;;;36.95;21.30;;;;;;;;;;5012938;28;20034;-65
2022/03/05 14:57:23;;;;;;;50.40;32.28;;;;;;;;;;5011455;28;20042;-66
2022/03/05 14:59:51;;;;;;;43.67;30.20;;;;;;;;;;5014367;28;20046;-67
2022/03/05 15:02:22;;;;;;;39.25;25.75;;;;;;;;;;5012265;28;20436;-67